createdAt,value
2022-10-24T00:00:01.757Z,8.75
2022-10-24T00:02:36.373Z,8.03
2022-10-24T00:05:10.152Z,7.12
2022-10-24T00:07:43.959Z,5.65
2022-10-24T00:10:17.654Z,6.10
2022-10-24T00:12:52.055Z,10.28
2022-10-24T00:15:25.439Z,9.48
2022-10-24T00:17:58.738Z,5.47
2022-10-24T00:20:32.857Z,6.05
2022-10-24T00:23:06.582Z,7.55
2022-10-24T00:25:39.341Z,5.97
2022-10-24T00:28:13.180Z,6.17
2022-10-24T00:30:46.387Z,6.83
2022-10-24T00:33:19.109Z,6.62
2022-10-24T00:35:51.953Z,6.05
2022-10-24T00:38:25.694Z,7.15
2022-10-24T00:40:59.241Z,6.12
2022-10-24T00:43:31.843Z,7.22
2022-10-24T00:46:04.655Z,6.10
2022-10-24T00:48:50.607Z,6.50
2022-10-24T00:51:30.184Z,6.45
2022-10-24T00:54:08.965Z,5.22
2022-10-24T00:56:45.850Z,5.90
2022-10-24T00:59:19.995Z,7.05
2022-10-24T01:01:52.883Z,8.15
2022-10-24T01:04:26.692Z,7.40
2022-10-24T01:07:22.040Z,6.37
2022-10-24T01:10:19.864Z,6.42
2022-10-24T01:13:24.330Z,7.08
2022-10-24T01:16:14.857Z,6.20
2022-10-24T01:19:32.966Z,6.03
2022-10-24T01:22:18.563Z,5.62
2022-10-24T01:25:01.679Z,7.65
2022-10-24T01:28:00.567Z,9.18
2022-10-24T01:30:38.407Z,6.17
2022-10-24T01:33:18.982Z,10.63
2022-10-24T01:36:12.971Z,6.47
2022-10-24T01:38:55.867Z,6.30
2022-10-24T01:41:30.285Z,6.58
2022-10-24T01:44:16.692Z,9.95
2022-10-24T01:46:59.813Z,8.98
2022-10-24T01:49:36.748Z,7.60
2022-10-24T01:52:33.071Z,8.40
2022-10-24T01:55:06.597Z,7.40
2022-10-24T01:57:40.002Z,6.87
2022-10-24T02:00:35.845Z,7.45
2022-10-24T02:03:23.440Z,7.90
2022-10-24T02:06:04.365Z,6.37
2022-10-24T02:08:41.744Z,10.38
2022-10-24T02:11:14.321Z,7.62
2022-10-24T02:13:58.776Z,7.15
2022-10-24T02:16:33.554Z,8.93
2022-10-24T02:19:06.683Z,9.55
2022-10-24T02:21:56.382Z,9.48
2022-10-24T02:24:40.325Z,7.10
2022-10-24T02:27:23.901Z,6.95
2022-10-24T02:30:15.145Z,7.95
2022-10-24T02:32:55.209Z,7.85
2022-10-24T02:35:53.655Z,9.80
2022-10-24T02:38:39.653Z,8.95
2022-10-24T02:41:16.399Z,7.37
2022-10-24T02:43:50.615Z,8.25
2022-10-24T02:46:24.530Z,8.55
2022-10-24T02:49:00.263Z,11.48
2022-10-24T02:51:36.598Z,9.40
2022-10-24T02:54:11.305Z,10.28
2022-10-24T02:56:49.145Z,10.30
2022-10-24T02:59:21.776Z,7.20
2022-10-24T03:01:56.181Z,11.93
2022-10-24T03:04:30.920Z,8.30
2022-10-24T03:07:03.869Z,11.22
2022-10-24T03:09:37.575Z,12.45
2022-10-24T03:12:11.122Z,9.10
2022-10-24T03:14:45.621Z,8.33
2022-10-24T03:17:18.343Z,8.33
2022-10-24T03:19:51.665Z,9.73
2022-10-24T03:22:29.913Z,11.63
2022-10-24T03:25:01.962Z,10.70
2022-10-24T03:27:36.103Z,9.13
2022-10-24T03:30:10.307Z,11.73
2022-10-24T03:32:43.198Z,12.98
2022-10-24T03:35:17.970Z,9.00
2022-10-24T03:37:50.521Z,10.40
2022-10-24T03:40:23.863Z,11.38
2022-10-24T03:42:57.790Z,14.20
2022-10-24T03:45:30.431Z,10.45
2022-10-24T03:48:03.850Z,9.43
2022-10-24T03:50:37.704Z,8.70
2022-10-24T03:53:11.988Z,10.30
2022-10-24T03:55:46.380Z,9.83
2022-10-24T03:58:19.101Z,12.75
2022-10-24T04:00:53.440Z,9.43
2022-10-24T04:03:27.949Z,12.40
2022-10-24T04:06:01.118Z,10.58
2022-10-24T04:08:33.698Z,11.43
2022-10-24T04:11:08.015Z,9.70
2022-10-24T04:13:41.071Z,14.13
2022-10-24T04:16:14.152Z,12.25
2022-10-24T04:18:47.286Z,11.57
2022-10-24T04:21:22.153Z,10.72
2022-10-24T04:23:55.466Z,13.08
2022-10-24T04:26:28.460Z,15.08
2022-10-24T04:29:01.394Z,11.10
2022-10-24T04:31:35.625Z,15.48
2022-10-24T04:34:08.257Z,12.63
2022-10-24T04:36:42.406Z,10.00
2022-10-24T04:39:15.020Z,12.58
2022-10-24T04:41:48.112Z,11.57
2022-10-24T04:44:20.839Z,11.68
2022-10-24T04:46:53.646Z,11.83
2022-10-24T04:49:26.428Z,14.30
2022-10-24T04:51:59.283Z,13.40
2022-10-24T04:54:31.890Z,16.73
2022-10-24T04:57:05.741Z,17.50
2022-10-24T04:59:38.980Z,12.28
2022-10-24T05:02:11.506Z,15.03
2022-10-24T05:04:45.150Z,13.50
2022-10-24T05:07:20.870Z,12.90
2022-10-24T05:09:53.806Z,10.70
2022-10-24T05:12:26.487Z,11.57
2022-10-24T05:15:00.337Z,14.95
2022-10-24T05:17:33.229Z,11.85
2022-10-24T05:20:07.991Z,12.73
2022-10-24T05:22:41.397Z,12.53
2022-10-24T05:25:14.293Z,12.58
2022-10-24T05:27:47.100Z,12.47
2022-10-24T05:30:20.286Z,13.35
2022-10-24T05:32:54.443Z,18.85
2022-10-24T05:35:28.066Z,13.98
2022-10-24T05:38:01.814Z,17.15
2022-10-24T05:40:35.958Z,9.88
2022-10-24T05:43:08.735Z,11.70
2022-10-24T05:45:41.516Z,17.12
2022-10-24T05:48:14.331Z,13.20
2022-10-24T05:50:47.248Z,10.08
2022-10-24T05:53:20.004Z,13.88
2022-10-24T05:55:52.790Z,10.55
2022-10-24T05:58:25.529Z,11.43
2022-10-24T06:00:58.332Z,15.95
2022-10-24T06:03:31.288Z,15.90
2022-10-24T06:06:11.575Z,10.68
2022-10-24T06:08:45.088Z,14.35
2022-10-24T06:11:19.682Z,15.03
2022-10-24T06:13:53.092Z,11.25
2022-10-24T06:16:27.545Z,12.93
2022-10-24T06:19:01.123Z,9.78
2022-10-24T06:21:34.185Z,13.32
2022-10-24T06:24:07.348Z,11.10
2022-10-24T06:26:41.853Z,15.00
2022-10-24T06:29:14.552Z,16.32
2022-10-24T06:31:47.872Z,12.98
2022-10-24T06:36:54.321Z,12.88
2022-10-24T06:39:27.276Z,11.78
2022-10-24T06:42:03.145Z,11.80
2022-10-24T06:44:37.059Z,14.67
2022-10-24T06:47:09.922Z,11.53
2022-10-24T06:49:43.548Z,11.40
2022-10-24T06:52:16.439Z,12.23
2022-10-24T06:54:49.770Z,12.25
2022-10-24T06:57:22.810Z,18.07
2022-10-24T06:59:55.799Z,15.65
2022-10-24T07:02:29.294Z,13.05
2022-10-24T07:05:05.763Z,18.30
2022-10-24T07:07:42.089Z,14.70
2022-10-24T07:10:15.829Z,14.15
2022-10-24T07:12:52.049Z,13.18
2022-10-24T07:15:26.365Z,13.93
2022-10-24T07:18:02.419Z,14.60
2022-10-24T07:23:16.260Z,19.12
2022-10-24T07:25:50.718Z,13.05
2022-10-24T07:28:26.378Z,14.85
2022-10-24T07:30:59.849Z,15.93
2022-10-24T07:33:33.894Z,17.98
2022-10-24T07:36:08.411Z,17.98
2022-10-24T07:38:41.305Z,14.53
2022-10-24T07:41:14.929Z,15.10
2022-10-24T07:43:48.275Z,17.07
2022-10-24T07:46:26.400Z,12.70
2022-10-24T07:52:02.617Z,13.90
2022-10-24T07:54:40.025Z,16.30
2022-10-24T07:57:13.099Z,16.30
2022-10-24T07:59:45.893Z,14.35
2022-10-24T08:02:21.552Z,17.90
2022-10-24T08:04:54.374Z,18.55
2022-10-24T08:07:27.671Z,17.85
2022-10-24T08:10:00.299Z,21.90
2022-10-24T08:12:33.289Z,19.00
2022-10-24T08:17:41.318Z,21.40
2022-10-24T08:20:14.485Z,27.37
2022-10-24T08:22:48.918Z,25.30
2022-10-24T08:25:22.460Z,20.43
2022-10-24T08:27:55.504Z,25.25
2022-10-24T08:30:29.716Z,24.83
2022-10-24T08:33:02.778Z,25.53
2022-10-24T08:35:36.613Z,27.55
2022-10-24T08:38:10.013Z,19.25
2022-10-24T08:40:43.256Z,25.52
2022-10-24T08:43:17.820Z,19.92
2022-10-24T08:46:22.375Z,21.93
2022-10-24T08:49:14.804Z,21.20
2022-10-24T08:52:04.670Z,22.05
2022-10-24T08:54:40.228Z,18.60
2022-10-24T08:57:26.171Z,15.10
2022-10-24T09:00:07.208Z,18.45
2022-10-24T09:02:40.949Z,19.12
2022-10-24T09:05:33.943Z,14.75
2022-10-24T09:08:31.664Z,19.60
2022-10-24T09:11:08.212Z,17.30
2022-10-24T09:13:42.068Z,18.70
2022-10-24T09:16:17.875Z,16.40
2022-10-24T09:18:53.953Z,18.10
2022-10-24T09:21:28.701Z,20.17
2022-10-24T09:24:01.769Z,28.73
2022-10-24T09:26:35.494Z,19.10
2022-10-24T09:29:09.031Z,22.52
2022-10-24T09:31:42.315Z,21.75
2022-10-24T09:34:15.140Z,22.22
2022-10-24T09:36:49.697Z,22.90
2022-10-24T09:39:34.949Z,24.12
2022-10-24T09:42:10.217Z,26.00
2022-10-24T09:50:23.959Z,28.50
2022-10-24T09:52:59.472Z,27.82
2022-10-24T09:55:34.577Z,29.70
2022-10-24T09:58:07.139Z,26.95
2022-10-24T10:00:40.004Z,20.02
2022-10-24T10:03:24.452Z,21.68
2022-10-24T10:06:02.394Z,21.68
2022-10-24T10:08:36.951Z,20.12
2022-10-24T10:11:12.594Z,20.12
2022-10-24T10:13:53.774Z,21.42
2022-10-24T10:16:33.521Z,24.35
2022-10-24T10:19:20.108Z,22.07
2022-10-24T10:22:07.159Z,27.00
2022-10-24T10:24:46.691Z,24.43
2022-10-24T10:27:40.295Z,24.95
2022-10-24T10:30:20.525Z,25.30
2022-10-24T10:33:21.738Z,23.73
2022-10-24T10:36:25.350Z,23.40
2022-10-24T10:39:25.636Z,19.45
2022-10-24T10:42:06.394Z,15.68
2022-10-24T10:44:55.736Z,19.82
2022-10-24T10:47:52.126Z,17.15
2022-10-24T10:51:07.299Z,12.45
2022-10-24T10:53:53.218Z,13.40
2022-10-24T10:56:36.185Z,11.93
2022-10-24T10:59:25.791Z,18.12
2022-10-24T11:02:21.901Z,12.43
2022-10-24T11:05:33.673Z,12.90
2022-10-24T11:08:43.392Z,12.30
2022-10-24T11:11:23.399Z,14.47
2022-10-24T11:14:16.302Z,12.40
2022-10-24T11:16:51.330Z,10.38
2022-10-24T11:41:53.951Z,18.15
2022-10-24T11:44:48.944Z,16.50
2022-10-24T11:47:44.560Z,15.08
2022-10-24T11:50:56.428Z,18.55
2022-10-24T11:53:41.332Z,15.60
2022-10-24T11:59:06.518Z,15.48
2022-10-24T12:02:16.520Z,17.92
2022-10-24T12:05:29.549Z,14.75
2022-10-24T12:08:16.114Z,16.73
2022-10-24T12:11:00.950Z,15.70
2022-10-24T12:13:47.439Z,17.02
2022-10-24T12:16:47.716Z,13.38
2022-10-24T12:19:21.242Z,11.33
2022-10-24T12:22:00.230Z,11.50
2022-10-24T12:24:36.530Z,12.60
2022-10-24T12:27:24.643Z,11.93
2022-10-24T12:30:21.942Z,13.32
2022-10-24T12:33:10.614Z,12.82
2022-10-24T12:35:48.695Z,13.65
2022-10-24T12:38:32.218Z,12.13
2022-10-24T12:41:08.206Z,13.35
2022-10-24T12:43:47.619Z,11.10
2022-10-24T12:46:24.999Z,10.82
2022-10-24T12:49:08.144Z,12.45
2022-10-24T12:51:41.950Z,11.88
2022-10-24T12:54:19.628Z,10.35
2022-10-24T12:56:58.705Z,12.43
2022-10-24T12:59:37.449Z,13.15
2022-10-24T13:02:18.273Z,11.35
2022-10-24T13:05:10.939Z,12.43
2022-10-24T13:08:06.975Z,13.32
2022-10-24T13:11:08.287Z,11.57
2022-10-24T13:14:00.553Z,10.70
2022-10-24T13:16:40.822Z,11.10
2022-10-24T13:19:22.242Z,12.60
2022-10-24T13:21:59.042Z,16.17
2022-10-24T13:24:40.147Z,15.08
2022-10-24T13:27:20.177Z,12.28
2022-10-24T13:30:01.700Z,11.75
2022-10-24T13:32:57.703Z,15.68
2022-10-24T13:35:32.267Z,11.93
2022-10-24T13:38:07.714Z,11.73
2022-10-24T13:40:39.501Z,10.38
2022-10-24T13:43:22.768Z,12.33
2022-10-24T13:46:02.542Z,18.98
2022-10-24T13:48:36.181Z,13.72
2022-10-24T13:51:19.196Z,12.93
2022-10-24T13:54:19.229Z,14.07
2022-10-24T13:56:51.792Z,16.85
2022-10-24T13:59:39.183Z,12.73
2022-10-24T14:02:26.155Z,19.35
2022-10-24T14:05:01.457Z,13.48
2022-10-24T14:07:36.838Z,13.85
2022-10-24T14:10:14.964Z,13.93
2022-10-24T14:12:49.888Z,17.65
2022-10-24T14:15:29.310Z,18.35
2022-10-24T14:18:09.105Z,15.75
2022-10-24T14:20:43.719Z,18.17
2022-10-24T14:23:35.545Z,14.13
2022-10-24T14:26:20.903Z,16.10
2022-10-24T14:29:01.172Z,19.98
2022-10-24T14:31:35.778Z,16.35
2022-10-24T14:34:11.043Z,15.03
2022-10-24T14:36:43.998Z,15.80
2022-10-24T14:39:23.956Z,17.25
2022-10-24T14:41:58.750Z,18.05
2022-10-24T14:47:07.532Z,16.95
2022-10-24T14:49:40.178Z,15.20
2022-10-24T14:52:18.388Z,18.35
2022-10-24T14:55:04.603Z,17.12
2022-10-24T14:57:37.182Z,18.80
2022-10-24T15:00:31.316Z,23.22
2022-10-24T15:03:07.575Z,17.67
2022-10-24T15:05:41.951Z,20.12
2022-10-24T15:08:22.613Z,18.05
2022-10-24T15:11:16.499Z,17.98
2022-10-24T15:14:06.833Z,18.55
2022-10-24T15:16:41.077Z,19.85
2022-10-24T15:19:18.836Z,23.75
2022-10-24T15:21:51.755Z,22.37
2022-10-24T15:24:26.772Z,22.17
2022-10-24T15:29:46.273Z,21.77
2022-10-24T15:32:19.941Z,19.15
2022-10-24T15:34:57.151Z,24.03
2022-10-24T15:37:30.268Z,23.20
2022-10-24T15:40:15.586Z,23.90
2022-10-24T15:42:49.566Z,24.10
2022-10-24T15:45:24.092Z,26.73
2022-10-24T15:47:57.240Z,28.38
2022-10-24T15:50:29.819Z,23.05
2022-10-24T15:53:04.803Z,33.73
2022-10-24T15:55:37.467Z,25.20
2022-10-24T15:58:15.575Z,26.20
2022-10-24T16:00:48.463Z,23.07
2022-10-24T16:03:24.580Z,28.17
2022-10-24T16:05:59.039Z,29.40
2022-10-24T16:08:31.881Z,24.63
2022-10-24T16:13:42.603Z,29.35
2022-10-24T16:16:15.438Z,24.72
2022-10-24T16:18:48.952Z,22.30
2022-10-24T16:21:22.513Z,27.35
2022-10-24T16:23:56.357Z,23.85
2022-10-24T16:26:29.211Z,24.65
2022-10-24T16:29:02.602Z,21.57
2022-10-24T16:31:36.006Z,25.77
2022-10-24T16:34:09.263Z,28.05
2022-10-24T16:36:42.908Z,33.40
2022-10-24T16:39:16.578Z,30.27
2022-10-24T16:41:50.484Z,25.90
2022-10-24T16:44:22.846Z,23.22
2022-10-24T16:46:55.423Z,23.92
2022-10-24T16:52:15.176Z,30.65
2022-10-24T16:54:47.663Z,26.57
2022-10-24T16:57:20.775Z,30.05
2022-10-24T16:59:53.325Z,29.15
2022-10-24T17:02:26.944Z,30.30
2022-10-24T17:04:59.378Z,26.85
2022-10-24T17:07:33.222Z,25.33
2022-10-24T17:10:07.438Z,23.98
2022-10-24T17:12:45.263Z,29.27
2022-10-24T17:15:22.123Z,28.85
2022-10-24T17:17:53.853Z,27.45
2022-10-24T17:20:26.865Z,30.68
2022-10-24T17:23:02.980Z,27.87
2022-10-24T17:25:37.349Z,26.82
2022-10-24T17:28:11.330Z,30.80
2022-10-24T17:30:46.884Z,30.17
2022-10-24T17:33:19.673Z,29.87
2022-10-24T17:35:57.227Z,32.38
2022-10-24T17:38:40.505Z,32.15
2022-10-24T17:41:26.402Z,35.28
2022-10-24T17:44:06.847Z,36.88
2022-10-24T17:46:40.857Z,36.28
2022-10-24T17:49:19.259Z,37.98
2022-10-24T17:51:52.440Z,39.65
2022-10-24T17:54:25.202Z,36.98
2022-10-24T17:56:57.619Z,36.88
2022-10-24T17:59:32.843Z,43.48
2022-10-24T18:02:05.632Z,33.08
2022-10-24T18:04:43.068Z,35.60
2022-10-24T18:07:15.936Z,33.83
2022-10-24T18:09:49.294Z,33.13
2022-10-24T18:12:22.534Z,32.80
2022-10-24T18:14:57.241Z,30.90
2022-10-24T18:17:31.636Z,36.75
2022-10-24T18:20:17.803Z,36.23
2022-10-24T18:22:51.891Z,34.78
2022-10-24T18:25:25.186Z,31.00
2022-10-24T18:27:57.750Z,28.15
2022-10-24T18:30:30.268Z,31.85
2022-10-24T18:33:03.925Z,31.12
2022-10-24T18:35:37.781Z,33.38
2022-10-24T18:38:10.338Z,31.73
2022-10-24T18:40:43.617Z,32.42
2022-10-24T18:43:17.744Z,33.23
2022-10-24T18:45:52.639Z,31.55
2022-10-24T18:48:27.456Z,36.85
2022-10-24T18:51:00.106Z,33.10
2022-10-24T18:53:34.689Z,31.25
2022-10-24T18:56:09.080Z,29.60
2022-10-24T18:58:42.478Z,31.37
2022-10-24T19:01:33.749Z,27.13
2022-10-24T19:04:20.030Z,34.88
2022-10-24T19:06:58.248Z,36.03
2022-10-24T19:09:31.027Z,31.00
2022-10-24T19:12:04.561Z,34.15
2022-10-24T19:14:37.390Z,32.37
2022-10-24T19:17:12.714Z,31.95
2022-10-24T19:19:45.933Z,38.08
2022-10-24T19:22:19.236Z,33.67
2022-10-24T19:24:52.627Z,34.20
2022-10-24T19:27:27.026Z,35.52
2022-10-24T19:32:31.992Z,28.17
2022-10-24T19:35:04.806Z,29.18
2022-10-24T19:37:37.922Z,32.33
2022-10-24T19:40:11.454Z,32.00
2022-10-24T19:45:21.506Z,27.10
2022-10-24T19:47:56.254Z,30.48
2022-10-24T19:50:29.603Z,27.55
2022-10-24T19:53:02.339Z,35.95
2022-10-24T19:55:39.491Z,29.18
2022-10-24T19:58:18.394Z,31.50
2022-10-24T20:00:52.025Z,31.07
2022-10-24T20:03:24.481Z,29.57
2022-10-24T20:06:01.301Z,31.65
2022-10-24T20:08:34.039Z,31.00
2022-10-24T20:11:07.237Z,30.25
2022-10-24T20:13:40.317Z,34.10
2022-10-24T20:16:13.577Z,30.52
2022-10-24T20:21:20.878Z,36.25
2022-10-24T20:23:53.443Z,43.35
2022-10-24T20:26:27.181Z,35.60
2022-10-24T20:29:00.531Z,38.10
2022-10-24T20:31:36.200Z,32.35
2022-10-24T20:34:13.810Z,30.55
2022-10-24T20:36:48.142Z,31.57
2022-10-24T20:39:21.803Z,29.85
2022-10-24T20:41:54.582Z,31.52
2022-10-24T20:44:31.705Z,30.10
2022-10-24T20:47:04.113Z,30.80
2022-10-24T20:49:36.511Z,31.30
2022-10-24T20:52:09.245Z,30.80
2022-10-24T20:54:41.718Z,35.63
2022-10-24T20:57:14.209Z,33.95
2022-10-24T20:59:47.243Z,34.75
2022-10-24T21:02:20.354Z,33.67
2022-10-24T21:04:54.512Z,31.27
2022-10-24T21:07:26.982Z,32.57
2022-10-24T21:09:59.366Z,35.45
2022-10-24T21:12:33.853Z,30.43
2022-10-24T21:15:07.221Z,39.03
2022-10-24T21:17:39.785Z,32.40
2022-10-24T21:20:12.500Z,32.28
2022-10-24T21:22:45.660Z,34.35
2022-10-24T21:25:18.639Z,31.15
2022-10-24T21:27:51.160Z,31.82
2022-10-24T21:30:24.142Z,31.65
2022-10-24T21:32:57.720Z,31.17
2022-10-24T21:35:30.105Z,34.20
2022-10-24T21:38:03.236Z,32.08
2022-10-24T21:40:35.992Z,33.98
2022-10-24T21:43:08.871Z,32.23
2022-10-24T21:45:41.927Z,37.15
2022-10-24T21:48:15.961Z,36.65
2022-10-24T21:50:51.094Z,34.23
2022-10-24T21:53:24.992Z,32.70
2022-10-24T21:56:07.443Z,32.70
2022-10-24T21:58:41.551Z,35.85
2022-10-24T22:01:16.285Z,39.18
2022-10-24T22:03:49.505Z,35.65
2022-10-24T22:06:22.593Z,39.53
2022-10-24T22:08:55.953Z,34.33
2022-10-24T22:11:30.683Z,36.53
2022-10-24T22:14:04.735Z,33.33
2022-10-24T22:16:38.379Z,34.98
2022-10-24T22:19:12.065Z,35.50
2022-10-24T22:21:48.352Z,36.30
2022-10-24T22:24:23.060Z,35.30
2022-10-24T22:26:56.329Z,34.98
2022-10-24T22:29:29.725Z,38.23
2022-10-24T22:32:02.660Z,35.75
2022-10-24T22:34:35.398Z,42.90
2022-10-24T22:37:33.924Z,34.43
2022-10-24T22:40:18.669Z,41.18
2022-10-24T22:42:52.138Z,36.17
2022-10-24T22:45:25.194Z,39.20
2022-10-24T22:48:20.740Z,37.65
2022-10-24T22:50:57.337Z,42.25
2022-10-24T22:53:32.143Z,40.80
2022-10-24T22:56:12.167Z,33.65
2022-10-24T22:58:46.748Z,39.38
2022-10-24T23:01:49.577Z,33.92
2022-10-24T23:04:58.583Z,37.67
2022-10-24T23:08:03.400Z,35.38
2022-10-24T23:10:38.323Z,36.25
2022-10-24T23:13:11.508Z,39.20
2022-10-24T23:15:44.970Z,38.70
2022-10-24T23:18:18.186Z,43.83
2022-10-24T23:20:58.324Z,40.28
2022-10-24T23:23:30.869Z,38.50
2022-10-24T23:26:23.952Z,39.23
2022-10-24T23:29:07.099Z,38.60
2022-10-24T23:31:40.511Z,41.08
2022-10-24T23:34:13.318Z,40.17
2022-10-24T23:36:46.078Z,40.98
2022-10-24T23:41:52.090Z,39.08
2022-10-24T23:44:26.003Z,37.63
2022-10-24T23:47:18.095Z,41.50
2022-10-24T23:49:58.241Z,41.05
2022-10-24T23:52:56.246Z,42.45
2022-10-24T23:55:29.102Z,43.70
2022-10-24T23:58:02.016Z,38.67
